• Join FlightAware (Why Join?)
  • Login
  • US Flag 
03:10AM EDT


 

Airport Tracker/Info


-or-


 

Live Flight TrackerFlight Track Log ✈ TYR844 ✈ 06-Jan-2014 ✈ LATI / TIA - LOWW / VIE

Flight Track Log - Related Links

Times and Time Zones

All times are in EST time to prevent confusion due to time zone crossing. See the TYR844 flight status page for this flight to view local times or setup timezone preferences in your user account.

Time Position Orientation Groundspeed Altitude Reporting Facility
EST Latitude Longitude Course Direction KTS MPH feet Rate Location/Type
10:52PM 42.1075 19.4282 343° North  Level Estimated
10:53PM 42.2064 19.3859 342° North  Level Estimated
10:54PM 42.3053 19.3435 342° North  Level Estimated
10:55PM 42.4042 19.3009 342° North  Level Estimated
10:56PM 42.5030 19.2582 342° North  Level Estimated
10:57PM 42.6019 19.2154 342° North  Level Estimated
10:58PM 42.7007 19.1724 342° North  Level Estimated
10:59PM 42.7995 19.1293 342° North  Level Estimated
11:00PM 42.8983 19.0861 342° North  Level Estimated
11:01PM 42.9971 19.0427 342° North  Level Estimated
11:02PM 43.0959 18.9992 342° North  Level Estimated
11:03PM 43.1946 18.9555 342° North  Level Estimated
11:04PM 43.2933 18.9117 342° North  Level Estimated
11:05PM 43.3920 18.8678 342° North  Level Estimated
11:06PM 43.4907 18.8237 342° North  Level Estimated
11:07PM 43.5894 18.7795 342° North  Level Estimated
11:08PM 43.6881 18.7351 342° North  Level Estimated
11:09PM 43.7867 18.6906 342° North  Level Estimated
11:10PM 43.8853 18.6459 342° North  Level Estimated
11:11PM 43.9839 18.6011 342° North  Level Estimated
11:12PM 44.0825 18.5561 342° North  Level Estimated
11:13PM 44.1811 18.5110 342° North  Level Estimated
11:14PM 44.2797 18.4657 342° North  Level Estimated
11:15PM 44.3782 18.4203 342° North  Level Estimated
11:16PM 44.4767 18.3747 342° North  Level Estimated
11:17PM 44.5752 18.3290 342° North  Level Estimated
11:18PM 44.6737 18.2831 342° North  Level Estimated
11:19PM 44.7722 18.2371 342° North  Level Estimated
11:20PM 44.8706 18.1909 342° North  Level Estimated
11:21PM 44.9690 18.1445 342° North  Level Estimated
11:22PM 45.0675 18.0980 342° North  Level Estimated
11:23PM 45.1658 18.0514 342° North  Level Estimated
11:24PM 45.2642 18.0045 341° North  Level Estimated
11:25PM 45.3626 17.9575 341° North  Level Estimated
11:26PM 45.4609 17.9104 341° North  Level Estimated
11:27PM 45.5592 17.8631 341° North  Level Estimated
11:28PM 45.6575 17.8156 341° North  Level Estimated
11:29PM 45.7558 17.7679 341° North  Level Estimated
11:30PM 45.8540 17.7201 341° North  Level Estimated
11:31PM 45.9522 17.6721 341° North  Level Estimated
11:32PM 46.0504 17.6239 341° North  Level Estimated
11:33PM 46.1486 17.5756 341° North  Level Estimated
11:34PM 46.2468 17.5271 341° North  Level Estimated
11:35PM 46.3450 17.4784 341° North  Level Estimated
11:36PM 46.4431 17.4295 341° North  Level Estimated
11:37PM 46.5412 17.3805 341° North  Level Estimated
11:38PM 46.6393 17.3313 341° North  Level Estimated
11:39PM 46.7374 17.2819 341° North  Level Estimated
11:40PM 46.8354 17.2323 341° North  Level Estimated
11:41PM 46.9334 17.1826 341° North  Level Estimated
11:42PM 47.0314 17.1326 341° North  Level Estimated
11:43PM 47.1294 17.0825 341° North  Level Estimated
11:44PM 47.2274 17.0322 341° North  Level Estimated
11:45PM 47.3253 16.9817 341° North  Level Estimated
11:46PM 47.4232 16.9310 341° North  Level Estimated
11:47PM 47.5211 16.8802 341° North  Level Estimated
11:48PM 47.6190 16.8291 341° North  Level Estimated
11:49PM 47.7168 16.7779 341° North  Level Estimated
11:50PM 47.8147 16.7264 341° North  Level Estimated
11:51PM 47.9124 16.6748 341° North  Level Estimated
11:52PM 48.0102 16.6230 340° North  Level Estimated
11:53PM 48.1080 16.5709 340° North  Level Estimated
11:54PM 48.1103 16.5697 340° North  Level Estimated
11:55PM 48.1103 16.5697 146° Southeast  Level Estimated
11:56PM 48.1103 16.5697 146° Southeast  Level Estimated
11:57PM 48.1103 16.5697 146° Southeast  Level Estimated
11:58PM 48.1103 16.5697 146° Southeast  Level Estimated
11:59PM 48.1103 16.5697 146° Southeast  Level Estimated
12:00AM 48.1103 16.5697 146° Southeast  Level Estimated
12:01AM 48.1103 16.5697 146° Southeast  Level Estimated
12:02AM 48.1103 16.5697 146° Southeast  Level Estimated
12:03AM 48.1103 16.5697 146° Southeast  Level Estimated
12:04AM 48.1103 16.5697 146° Southeast  Level Estimated
12:05AM 48.1103 16.5697 146° Southeast  Level Estimated
12:06AM 48.1103 16.5697 146° Southeast  Level Estimated
12:07AM 48.1103 16.5697 146° Southeast  Level Estimated
12:08AM 48.1103 16.5697 146° Southeast  Level Estimated
12:09AM 48.1103 16.5697 146° Southeast  Level Estimated